sensor_id;sensor_type;location;lat;lon;timestamp;P1;durP1;ratioP1;P2;durP2;ratioP2
1593;SDS011;790;47.000;16.084;2022-11-27T00:01:07;8.93;;;6.27;;
1593;SDS011;790;47.000;16.084;2022-11-27T00:03:35;9.00;;;6.80;;
1593;SDS011;790;47.000;16.084;2022-11-27T00:06:04;6.57;;;5.97;;
1593;SDS011;790;47.000;16.084;2022-11-27T00:08:32;6.17;;;5.60;;
1593;SDS011;790;47.000;16.084;2022-11-27T00:11:03;6.63;;;5.87;;
1593;SDS011;790;47.000;16.084;2022-11-27T00:13:32;6.80;;;5.87;;
1593;SDS011;790;47.000;16.084;2022-11-27T00:15:59;6.30;;;5.70;;
1593;SDS011;790;47.000;16.084;2022-11-27T00:18:26;6.33;;;5.67;;
1593;SDS011;790;47.000;16.084;2022-11-27T00:20:53;6.47;;;5.87;;
1593;SDS011;790;47.000;16.084;2022-11-27T00:23:22;6.13;;;5.53;;
1593;SDS011;790;47.000;16.084;2022-11-27T00:25:49;6.50;;;5.30;;
1593;SDS011;790;47.000;16.084;2022-11-27T00:28:16;5.70;;;5.20;;
1593;SDS011;790;47.000;16.084;2022-11-27T00:30:44;7.27;;;4.90;;
1593;SDS011;790;47.000;16.084;2022-11-27T00:33:11;7.40;;;5.10;;
1593;SDS011;790;47.000;16.084;2022-11-27T00:35:38;5.67;;;5.17;;
1593;SDS011;790;47.000;16.084;2022-11-27T00:38:05;6.30;;;5.10;;
1593;SDS011;790;47.000;16.084;2022-11-27T00:40:34;7.77;;;5.57;;
1593;SDS011;790;47.000;16.084;2022-11-27T00:43:01;5.80;;;5.30;;
1593;SDS011;790;47.000;16.084;2022-11-27T00:45:29;6.23;;;5.63;;
1593;SDS011;790;47.000;16.084;2022-11-27T00:47:56;6.03;;;5.43;;
1593;SDS011;790;47.000;16.084;2022-11-27T00:50:23;6.27;;;5.67;;
1593;SDS011;790;47.000;16.084;2022-11-27T00:52:50;6.87;;;6.20;;
1593;SDS011;790;47.000;16.084;2022-11-27T00:55:17;7.63;;;5.90;;
1593;SDS011;790;47.000;16.084;2022-11-27T00:57:45;6.60;;;6.10;;
1593;SDS011;790;47.000;16.084;2022-11-27T01:00:13;7.10;;;6.40;;
1593;SDS011;790;47.000;16.084;2022-11-27T01:02:40;7.03;;;6.33;;
1593;SDS011;790;47.000;16.084;2022-11-27T01:05:08;7.60;;;6.80;;
1593;SDS011;790;47.000;16.084;2022-11-27T01:07:35;7.03;;;5.90;;
1593;SDS011;790;47.000;16.084;2022-11-27T01:10:02;8.37;;;6.40;;
1593;SDS011;790;47.000;16.084;2022-11-27T01:12:30;6.50;;;5.83;;
1593;SDS011;790;47.000;16.084;2022-11-27T01:14:58;6.73;;;5.67;;
1593;SDS011;790;47.000;16.084;2022-11-27T01:17:25;7.40;;;6.70;;
1593;SDS011;790;47.000;16.084;2022-11-27T01:19:52;7.57;;;6.77;;
1593;SDS011;790;47.000;16.084;2022-11-27T01:22:19;7.30;;;6.60;;
1593;SDS011;790;47.000;16.084;2022-11-27T01:24:46;7.83;;;7.00;;
1593;SDS011;790;47.000;16.084;2022-11-27T01:27:13;8.10;;;6.83;;
1593;SDS011;790;47.000;16.084;2022-11-27T01:29:40;7.70;;;7.00;;
1593;SDS011;790;47.000;16.084;2022-11-27T01:32:08;7.20;;;6.50;;
1593;SDS011;790;47.000;16.084;2022-11-27T01:34:36;7.60;;;6.67;;
1593;SDS011;790;47.000;16.084;2022-11-27T01:37:03;7.70;;;6.17;;
1593;SDS011;790;47.000;16.084;2022-11-27T01:39:30;6.67;;;5.97;;
1593;SDS011;790;47.000;16.084;2022-11-27T01:41:57;7.00;;;6.17;;
1593;SDS011;790;47.000;16.084;2022-11-27T01:47:15;6.87;;;6.23;;
1593;SDS011;790;47.000;16.084;2022-11-27T01:49:50;7.10;;;6.20;;
1593;SDS011;790;47.000;16.084;2022-11-27T01:52:21;7.13;;;6.30;;
1593;SDS011;790;47.000;16.084;2022-11-27T01:54:52;6.77;;;6.17;;
1593;SDS011;790;47.000;16.084;2022-11-27T01:57:23;6.70;;;6.10;;
1593;SDS011;790;47.000;16.084;2022-11-27T01:59:53;7.03;;;5.93;;
1593;SDS011;790;47.000;16.084;2022-11-27T02:02:24;6.27;;;5.77;;
1593;SDS011;790;47.000;16.084;2022-11-27T02:04:51;6.57;;;5.77;;
1593;SDS011;790;47.000;16.084;2022-11-27T02:07:19;6.80;;;5.53;;
1593;SDS011;790;47.000;16.084;2022-11-27T02:09:47;6.40;;;5.90;;
1593;SDS011;790;47.000;16.084;2022-11-27T02:12:15;6.63;;;6.03;;
1593;SDS011;790;47.000;16.084;2022-11-27T02:14:51;7.63;;;6.47;;
1593;SDS011;790;47.000;16.084;2022-11-27T02:17:28;7.37;;;6.07;;
1593;SDS011;790;47.000;16.084;2022-11-27T02:20:10;6.77;;;5.77;;
1593;SDS011;790;47.000;16.084;2022-11-27T02:26:12;6.13;;;5.67;;
1593;SDS011;790;47.000;16.084;2022-11-27T02:29:01;6.47;;;5.73;;
1593;SDS011;790;47.000;16.084;2022-11-27T02:31:33;5.93;;;5.40;;
1593;SDS011;790;47.000;16.084;2022-11-27T02:34:15;6.33;;;5.80;;
1593;SDS011;790;47.000;16.084;2022-11-27T02:36:48;7.17;;;6.03;;
1593;SDS011;790;47.000;16.084;2022-11-27T02:39:21;6.20;;;5.67;;
1593;SDS011;790;47.000;16.084;2022-11-27T02:41:54;6.77;;;6.07;;
1593;SDS011;790;47.000;16.084;2022-11-27T02:44:27;6.27;;;5.77;;
1593;SDS011;790;47.000;16.084;2022-11-27T02:46:59;8.87;;;5.40;;
1593;SDS011;790;47.000;16.084;2022-11-27T02:49:27;6.43;;;5.80;;
1593;SDS011;790;47.000;16.084;2022-11-27T02:51:55;6.77;;;6.07;;
1593;SDS011;790;47.000;16.084;2022-11-27T02:54:25;5.23;;;4.80;;
1593;SDS011;790;47.000;16.084;2022-11-27T02:56:54;6.57;;;5.97;;
1593;SDS011;790;47.000;16.084;2022-11-27T02:59:24;6.43;;;5.93;;
1593;SDS011;790;47.000;16.084;2022-11-27T03:01:57;7.40;;;5.60;;
1593;SDS011;790;47.000;16.084;2022-11-27T03:04:29;5.60;;;5.10;;
1593;SDS011;790;47.000;16.084;2022-11-27T03:07:00;5.90;;;5.30;;
1593;SDS011;790;47.000;16.084;2022-11-27T03:09:31;6.33;;;5.53;;
1593;SDS011;790;47.000;16.084;2022-11-27T03:12:01;7.20;;;5.57;;
1593;SDS011;790;47.000;16.084;2022-11-27T03:14:31;6.50;;;5.30;;
1593;SDS011;790;47.000;16.084;2022-11-27T03:17:01;6.47;;;5.27;;
1593;SDS011;790;47.000;16.084;2022-11-27T03:19:37;5.17;;;4.77;;
1593;SDS011;790;47.000;16.084;2022-11-27T03:22:08;6.23;;;5.57;;
1593;SDS011;790;47.000;16.084;2022-11-27T03:24:37;5.83;;;5.23;;
1593;SDS011;790;47.000;16.084;2022-11-27T03:27:04;5.73;;;5.23;;
1593;SDS011;790;47.000;16.084;2022-11-27T03:29:34;5.90;;;5.37;;
1593;SDS011;790;47.000;16.084;2022-11-27T03:32:05;5.57;;;5.10;;
1593;SDS011;790;47.000;16.084;2022-11-27T03:34:33;5.30;;;4.80;;
1593;SDS011;790;47.000;16.084;2022-11-27T03:37:00;5.50;;;5.00;;
1593;SDS011;790;47.000;16.084;2022-11-27T03:39:28;5.73;;;5.03;;
1593;SDS011;790;47.000;16.084;2022-11-27T03:41:58;5.93;;;5.00;;
1593;SDS011;790;47.000;16.084;2022-11-27T03:44:40;5.23;;;4.40;;
1593;SDS011;790;47.000;16.084;2022-11-27T03:47:14;9.57;;;5.10;;
1593;SDS011;790;47.000;16.084;2022-11-27T03:49:55;5.33;;;4.93;;
1593;SDS011;790;47.000;16.084;2022-11-27T03:52:33;5.50;;;5.00;;
1593;SDS011;790;47.000;16.084;2022-11-27T03:55:08;6.37;;;4.97;;
1593;SDS011;790;47.000;16.084;2022-11-27T03:57:40;5.63;;;4.87;;
1593;SDS011;790;47.000;16.084;2022-11-27T04:00:14;5.60;;;4.50;;
1593;SDS011;790;47.000;16.084;2022-11-27T04:02:43;5.73;;;4.73;;
1593;SDS011;790;47.000;16.084;2022-11-27T04:05:12;5.00;;;4.20;;
1593;SDS011;790;47.000;16.084;2022-11-27T04:07:40;4.60;;;4.20;;
1593;SDS011;790;47.000;16.084;2022-11-27T04:10:08;4.93;;;4.43;;
1593;SDS011;790;47.000;16.084;2022-11-27T04:12:36;4.40;;;4.00;;
1593;SDS011;790;47.000;16.084;2022-11-27T04:15:04;4.90;;;4.47;;
1593;SDS011;790;47.000;16.084;2022-11-27T04:17:34;5.17;;;4.67;;
1593;SDS011;790;47.000;16.084;2022-11-27T04:20:02;5.83;;;5.20;;
1593;SDS011;790;47.000;16.084;2022-11-27T04:22:30;7.27;;;4.73;;
1593;SDS011;790;47.000;16.084;2022-11-27T04:24:57;5.00;;;4.60;;
1593;SDS011;790;47.000;16.084;2022-11-27T04:27:24;7.67;;;4.80;;
1593;SDS011;790;47.000;16.084;2022-11-27T04:29:51;4.50;;;4.10;;
1593;SDS011;790;47.000;16.084;2022-11-27T04:32:18;5.87;;;4.53;;
1593;SDS011;790;47.000;16.084;2022-11-27T04:34:46;5.20;;;4.70;;
1593;SDS011;790;47.000;16.084;2022-11-27T04:37:13;10.90;;;5.13;;
1593;SDS011;790;47.000;16.084;2022-11-27T04:39:40;24.10;;;6.47;;
1593;SDS011;790;47.000;16.084;2022-11-27T04:42:07;15.97;;;5.60;;
1593;SDS011;790;47.000;16.084;2022-11-27T04:44:35;8.13;;;5.17;;
1593;SDS011;790;47.000;16.084;2022-11-27T04:47:02;20.80;;;5.10;;
1593;SDS011;790;47.000;16.084;2022-11-27T04:49:29;20.13;;;5.37;;
1593;SDS011;790;47.000;16.084;2022-11-27T04:51:57;12.17;;;5.33;;
1593;SDS011;790;47.000;16.084;2022-11-27T04:54:24;24.27;;;7.23;;
1593;SDS011;790;47.000;16.084;2022-11-27T04:56:51;12.37;;;5.80;;
1593;SDS011;790;47.000;16.084;2022-11-27T04:59:18;18.83;;;7.03;;
1593;SDS011;790;47.000;16.084;2022-11-27T05:01:46;10.70;;;7.13;;
1593;SDS011;790;47.000;16.084;2022-11-27T05:04:14;11.27;;;6.77;;
1593;SDS011;790;47.000;16.084;2022-11-27T05:06:41;10.40;;;7.10;;
1593;SDS011;790;47.000;16.084;2022-11-27T05:09:09;10.53;;;6.87;;
1593;SDS011;790;47.000;16.084;2022-11-27T05:11:36;7.63;;;6.37;;
1593;SDS011;790;47.000;16.084;2022-11-27T05:14:04;9.30;;;6.33;;
1593;SDS011;790;47.000;16.084;2022-11-27T05:16:45;8.77;;;6.30;;
1593;SDS011;790;47.000;16.084;2022-11-27T05:19:14;9.10;;;6.70;;
1593;SDS011;790;47.000;16.084;2022-11-27T05:21:43;9.13;;;6.33;;
1593;SDS011;790;47.000;16.084;2022-11-27T05:24:12;9.03;;;6.00;;
1593;SDS011;790;47.000;16.084;2022-11-27T05:26:40;7.60;;;5.77;;
1593;SDS011;790;47.000;16.084;2022-11-27T05:29:08;8.57;;;5.97;;
1593;SDS011;790;47.000;16.084;2022-11-27T05:31:36;10.37;;;5.73;;
1593;SDS011;790;47.000;16.084;2022-11-27T05:34:04;6.33;;;5.43;;
1593;SDS011;790;47.000;16.084;2022-11-27T05:36:32;7.20;;;5.57;;
1593;SDS011;790;47.000;16.084;2022-11-27T05:39:02;6.00;;;5.40;;
1593;SDS011;790;47.000;16.084;2022-11-27T05:41:32;7.43;;;5.50;;
1593;SDS011;790;47.000;16.084;2022-11-27T05:44:00;5.37;;;4.87;;
1593;SDS011;790;47.000;16.084;2022-11-27T05:46:27;7.57;;;4.93;;
1593;SDS011;790;47.000;16.084;2022-11-27T05:48:54;7.17;;;4.60;;
1593;SDS011;790;47.000;16.084;2022-11-27T05:51:21;6.17;;;5.23;;
1593;SDS011;790;47.000;16.084;2022-11-27T05:53:48;5.37;;;4.40;;
1593;SDS011;790;47.000;16.084;2022-11-27T05:56:16;5.90;;;5.07;;
1593;SDS011;790;47.000;16.084;2022-11-27T05:58:46;6.10;;;4.93;;
1593;SDS011;790;47.000;16.084;2022-11-27T06:01:14;6.17;;;4.63;;
1593;SDS011;790;47.000;16.084;2022-11-27T06:03:42;5.03;;;4.63;;
1593;SDS011;790;47.000;16.084;2022-11-27T06:06:10;5.83;;;4.60;;
1593;SDS011;790;47.000;16.084;2022-11-27T06:08:39;4.87;;;4.40;;
1593;SDS011;790;47.000;16.084;2022-11-27T06:11:07;4.53;;;4.13;;
1593;SDS011;790;47.000;16.084;2022-11-27T06:13:34;5.07;;;4.37;;
1593;SDS011;790;47.000;16.084;2022-11-27T06:16:16;4.67;;;4.10;;
1593;SDS011;790;47.000;16.084;2022-11-27T06:18:44;4.80;;;4.40;;
1593;SDS011;790;47.000;16.084;2022-11-27T06:21:14;4.67;;;4.30;;
1593;SDS011;790;47.000;16.084;2022-11-27T06:23:41;4.20;;;3.90;;
1593;SDS011;790;47.000;16.084;2022-11-27T06:26:10;5.00;;;4.53;;
1593;SDS011;790;47.000;16.084;2022-11-27T06:28:39;5.17;;;4.50;;
1593;SDS011;790;47.000;16.084;2022-11-27T06:31:09;5.13;;;4.63;;
1593;SDS011;790;47.000;16.084;2022-11-27T06:33:37;4.80;;;4.40;;
1593;SDS011;790;47.000;16.084;2022-11-27T06:36:05;5.53;;;4.43;;
1593;SDS011;790;47.000;16.084;2022-11-27T06:38:32;4.57;;;4.17;;
1593;SDS011;790;47.000;16.084;2022-11-27T06:41:01;4.20;;;3.90;;
1593;SDS011;790;47.000;16.084;2022-11-27T06:43:29;4.57;;;4.17;;
1593;SDS011;790;47.000;16.084;2022-11-27T06:45:56;6.87;;;5.20;;
1593;SDS011;790;47.000;16.084;2022-11-27T06:48:25;5.63;;;5.07;;
1593;SDS011;790;47.000;16.084;2022-11-27T06:50:53;6.97;;;6.27;;
1593;SDS011;790;47.000;16.084;2022-11-27T06:53:20;7.73;;;6.70;;
1593;SDS011;790;47.000;16.084;2022-11-27T06:55:47;8.53;;;7.10;;
1593;SDS011;790;47.000;16.084;2022-11-27T06:58:14;7.33;;;6.63;;
1593;SDS011;790;47.000;16.084;2022-11-27T07:00:41;6.63;;;6.03;;
1593;SDS011;790;47.000;16.084;2022-11-27T07:03:08;6.97;;;6.27;;
1593;SDS011;790;47.000;16.084;2022-11-27T07:05:36;5.70;;;5.17;;
1593;SDS011;790;47.000;16.084;2022-11-27T07:08:04;7.67;;;6.80;;
1593;SDS011;790;47.000;16.084;2022-11-27T07:10:32;7.33;;;6.60;;
1593;SDS011;790;47.000;16.084;2022-11-27T07:13:00;8.27;;;7.37;;
1593;SDS011;790;47.000;16.084;2022-11-27T07:15:27;8.03;;;7.23;;
1593;SDS011;790;47.000;16.084;2022-11-27T07:17:54;8.33;;;7.20;;
1593;SDS011;790;47.000;16.084;2022-11-27T07:20:23;10.03;;;7.93;;
1593;SDS011;790;47.000;16.084;2022-11-27T07:22:51;14.07;;;8.50;;
1593;SDS011;790;47.000;16.084;2022-11-27T07:25:18;7.47;;;6.77;;
1593;SDS011;790;47.000;16.084;2022-11-27T07:27:45;7.30;;;6.60;;
1593;SDS011;790;47.000;16.084;2022-11-27T07:30:13;6.83;;;6.13;;
1593;SDS011;790;47.000;16.084;2022-11-27T07:32:40;6.70;;;6.20;;
1593;SDS011;790;47.000;16.084;2022-11-27T07:35:08;6.30;;;5.70;;
1593;SDS011;790;47.000;16.084;2022-11-27T07:37:35;6.40;;;5.80;;
1593;SDS011;790;47.000;16.084;2022-11-27T07:40:04;6.70;;;5.63;;
1593;SDS011;790;47.000;16.084;2022-11-27T07:42:32;5.63;;;5.13;;
1593;SDS011;790;47.000;16.084;2022-11-27T07:44:59;4.83;;;4.53;;
1593;SDS011;790;47.000;16.084;2022-11-27T07:47:26;5.73;;;5.13;;
1593;SDS011;790;47.000;16.084;2022-11-27T07:49:55;11.73;;;9.07;;
1593;SDS011;790;47.000;16.084;2022-11-27T07:52:24;8.13;;;7.23;;
1593;SDS011;790;47.000;16.084;2022-11-27T07:54:51;9.23;;;7.80;;
1593;SDS011;790;47.000;16.084;2022-11-27T07:57:20;8.13;;;7.17;;
1593;SDS011;790;47.000;16.084;2022-11-27T07:59:47;7.67;;;6.87;;
1593;SDS011;790;47.000;16.084;2022-11-27T08:02:14;7.20;;;6.47;;
1593;SDS011;790;47.000;16.084;2022-11-27T08:04:41;8.43;;;6.43;;
1593;SDS011;790;47.000;16.084;2022-11-27T08:07:08;6.80;;;6.17;;
1593;SDS011;790;47.000;16.084;2022-11-27T08:09:35;7.30;;;6.60;;
1593;SDS011;790;47.000;16.084;2022-11-27T08:12:04;6.90;;;6.30;;
1593;SDS011;790;47.000;16.084;2022-11-27T08:14:33;9.57;;;7.47;;
1593;SDS011;790;47.000;16.084;2022-11-27T08:17:00;9.60;;;8.37;;
1593;SDS011;790;47.000;16.084;2022-11-27T08:19:27;13.83;;;10.90;;
1593;SDS011;790;47.000;16.084;2022-11-27T08:21:54;10.27;;;9.20;;
1593;SDS011;790;47.000;16.084;2022-11-27T08:24:22;11.77;;;9.30;;
1593;SDS011;790;47.000;16.084;2022-11-27T08:26:49;10.00;;;7.93;;
1593;SDS011;790;47.000;16.084;2022-11-27T08:29:17;8.63;;;7.40;;
1593;SDS011;790;47.000;16.084;2022-11-27T08:31:45;8.33;;;7.37;;
1593;SDS011;790;47.000;16.084;2022-11-27T08:34:12;8.37;;;7.53;;
1593;SDS011;790;47.000;16.084;2022-11-27T08:36:39;8.30;;;7.03;;
1593;SDS011;790;47.000;16.084;2022-11-27T08:39:06;10.77;;;7.10;;
1593;SDS011;790;47.000;16.084;2022-11-27T08:41:33;9.63;;;7.40;;
1593;SDS011;790;47.000;16.084;2022-11-27T08:44:00;8.77;;;7.87;;
1593;SDS011;790;47.000;16.084;2022-11-27T08:46:28;11.03;;;7.27;;
1593;SDS011;790;47.000;16.084;2022-11-27T08:48:57;9.07;;;8.00;;
1593;SDS011;790;47.000;16.084;2022-11-27T08:51:24;8.47;;;7.47;;
1593;SDS011;790;47.000;16.084;2022-11-27T08:53:51;9.80;;;7.80;;
1593;SDS011;790;47.000;16.084;2022-11-27T08:56:19;10.90;;;6.63;;
1593;SDS011;790;47.000;16.084;2022-11-27T08:58:47;6.10;;;5.47;;
1593;SDS011;790;47.000;16.084;2022-11-27T09:01:16;7.20;;;5.77;;
1593;SDS011;790;47.000;16.084;2022-11-27T09:03:44;3.77;;;3.47;;
1593;SDS011;790;47.000;16.084;2022-11-27T09:06:14;3.90;;;3.63;;
1593;SDS011;790;47.000;16.084;2022-11-27T09:08:42;3.50;;;3.20;;
1593;SDS011;790;47.000;16.084;2022-11-27T09:11:11;3.43;;;3.07;;
1593;SDS011;790;47.000;16.084;2022-11-27T09:13:38;3.20;;;3.00;;
1593;SDS011;790;47.000;16.084;2022-11-27T09:16:07;2.93;;;2.73;;
1593;SDS011;790;47.000;16.084;2022-11-27T09:18:36;2.77;;;2.57;;
1593;SDS011;790;47.000;16.084;2022-11-27T09:21:04;3.10;;;2.80;;
1593;SDS011;790;47.000;16.084;2022-11-27T09:23:34;3.10;;;2.77;;
1593;SDS011;790;47.000;16.084;2022-11-27T09:26:05;3.00;;;2.80;;
1593;SDS011;790;47.000;16.084;2022-11-27T09:28:34;2.87;;;2.70;;
1593;SDS011;790;47.000;16.084;2022-11-27T09:31:02;2.50;;;2.30;;
1593;SDS011;790;47.000;16.084;2022-11-27T09:33:31;2.70;;;2.50;;
1593;SDS011;790;47.000;16.084;2022-11-27T09:36:02;2.27;;;2.17;;
1593;SDS011;790;47.000;16.084;2022-11-27T09:38:33;2.23;;;2.03;;
1593;SDS011;790;47.000;16.084;2022-11-27T09:41:02;2.60;;;2.40;;
1593;SDS011;790;47.000;16.084;2022-11-27T09:43:40;2.23;;;2.10;;
1593;SDS011;790;47.000;16.084;2022-11-27T09:46:12;2.70;;;2.50;;
1593;SDS011;790;47.000;16.084;2022-11-27T09:48:50;2.77;;;2.17;;
1593;SDS011;790;47.000;16.084;2022-11-27T09:51:20;3.80;;;2.20;;
1593;SDS011;790;47.000;16.084;2022-11-27T09:53:55;2.27;;;2.13;;
1593;SDS011;790;47.000;16.084;2022-11-27T09:56:26;2.33;;;2.23;;
1593;SDS011;790;47.000;16.084;2022-11-27T09:58:55;4.77;;;2.77;;
1593;SDS011;790;47.000;16.084;2022-11-27T10:01:23;3.10;;;2.70;;
1593;SDS011;790;47.000;16.084;2022-11-27T10:03:52;2.90;;;2.60;;
1593;SDS011;790;47.000;16.084;2022-11-27T10:06:22;2.23;;;1.97;;
1593;SDS011;790;47.000;16.084;2022-11-27T10:09:01;11.27;;;10.50;;
1593;SDS011;790;47.000;16.084;2022-11-27T10:11:40;2.87;;;2.67;;
1593;SDS011;790;47.000;16.084;2022-11-27T10:17:06;1.93;;;1.83;;
1593;SDS011;790;47.000;16.084;2022-11-27T10:19:38;5.37;;;2.53;;
1593;SDS011;790;47.000;16.084;2022-11-27T10:22:12;3.47;;;2.50;;
1593;SDS011;790;47.000;16.084;2022-11-27T10:24:47;4.33;;;2.33;;
1593;SDS011;790;47.000;16.084;2022-11-27T10:27:24;8.33;;;7.53;;
1593;SDS011;790;47.000;16.084;2022-11-27T10:29:57;2.93;;;2.40;;
1593;SDS011;790;47.000;16.084;2022-11-27T10:32:26;3.77;;;2.50;;
1593;SDS011;790;47.000;16.084;2022-11-27T10:34:56;4.17;;;3.53;;
1593;SDS011;790;47.000;16.084;2022-11-27T10:37:27;2.90;;;2.80;;
1593;SDS011;790;47.000;16.084;2022-11-27T10:39:59;2.17;;;2.03;;
1593;SDS011;790;47.000;16.084;2022-11-27T10:42:33;6.90;;;2.10;;
1593;SDS011;790;47.000;16.084;2022-11-27T10:45:06;4.07;;;2.33;;
1593;SDS011;790;47.000;16.084;2022-11-27T10:47:41;2.63;;;2.43;;
1593;SDS011;790;47.000;16.084;2022-11-27T10:50:11;3.67;;;2.37;;
1593;SDS011;790;47.000;16.084;2022-11-27T10:52:42;2.20;;;2.00;;
1593;SDS011;790;47.000;16.084;2022-11-27T10:55:18;3.73;;;2.10;;
1593;SDS011;790;47.000;16.084;2022-11-27T10:57:56;2.87;;;1.80;;
1593;SDS011;790;47.000;16.084;2022-11-27T11:00:31;2.40;;;2.20;;
1593;SDS011;790;47.000;16.084;2022-11-27T11:02:58;3.30;;;2.00;;
1593;SDS011;790;47.000;16.084;2022-11-27T11:05:26;2.20;;;2.00;;
1593;SDS011;790;47.000;16.084;2022-11-27T11:07:56;4.33;;;2.10;;
1593;SDS011;790;47.000;16.084;2022-11-27T11:10:28;3.10;;;2.10;;
1593;SDS011;790;47.000;16.084;2022-11-27T11:13:13;4.67;;;2.07;;
1593;SDS011;790;47.000;16.084;2022-11-27T11:15:47;2.17;;;1.90;;
1593;SDS011;790;47.000;16.084;2022-11-27T11:18:16;3.27;;;2.33;;
1593;SDS011;790;47.000;16.084;2022-11-27T11:20:46;2.70;;;2.13;;
1593;SDS011;790;47.000;16.084;2022-11-27T11:23:18;1.87;;;1.60;;
1593;SDS011;790;47.000;16.084;2022-11-27T11:25:51;3.43;;;2.30;;
1593;SDS011;790;47.000;16.084;2022-11-27T11:28:21;1.67;;;1.57;;
1593;SDS011;790;47.000;16.084;2022-11-27T11:30:56;2.60;;;2.17;;
1593;SDS011;790;47.000;16.084;2022-11-27T11:33:27;5.70;;;1.93;;
1593;SDS011;790;47.000;16.084;2022-11-27T11:35:56;1.60;;;1.50;;
1593;SDS011;790;47.000;16.084;2022-11-27T11:38:33;2.17;;;1.80;;
1593;SDS011;790;47.000;16.084;2022-11-27T11:41:03;2.83;;;2.03;;
1593;SDS011;790;47.000;16.084;2022-11-27T11:43:32;1.97;;;1.87;;
1593;SDS011;790;47.000;16.084;2022-11-27T11:46:04;1.80;;;1.70;;
1593;SDS011;790;47.000;16.084;2022-11-27T11:48:50;2.73;;;2.30;;
1593;SDS011;790;47.000;16.084;2022-11-27T11:51:23;3.93;;;2.20;;
1593;SDS011;790;47.000;16.084;2022-11-27T11:54:03;3.00;;;2.07;;
1593;SDS011;790;47.000;16.084;2022-11-27T11:56:42;3.63;;;2.27;;
1593;SDS011;790;47.000;16.084;2022-11-27T11:59:14;2.67;;;1.70;;
1593;SDS011;790;47.000;16.084;2022-11-27T12:02:17;2.10;;;1.70;;
1593;SDS011;790;47.000;16.084;2022-11-27T12:05:09;2.27;;;1.83;;
1593;SDS011;790;47.000;16.084;2022-11-27T12:07:53;2.83;;;1.70;;
1593;SDS011;790;47.000;16.084;2022-11-27T12:10:29;2.23;;;1.80;;
1593;SDS011;790;47.000;16.084;2022-11-27T12:13:16;3.47;;;1.90;;
1593;SDS011;790;47.000;16.084;2022-11-27T12:15:52;2.03;;;1.57;;
1593;SDS011;790;47.000;16.084;2022-11-27T12:18:25;2.63;;;1.80;;
1593;SDS011;790;47.000;16.084;2022-11-27T12:21:03;2.20;;;1.90;;
1593;SDS011;790;47.000;16.084;2022-11-27T12:23:46;1.93;;;1.80;;
1593;SDS011;790;47.000;16.084;2022-11-27T12:26:33;4.07;;;2.03;;
1593;SDS011;790;47.000;16.084;2022-11-27T12:32:18;3.37;;;2.13;;
1593;SDS011;790;47.000;16.084;2022-11-27T12:35:02;2.70;;;1.80;;
1593;SDS011;790;47.000;16.084;2022-11-27T12:37:46;2.50;;;1.70;;
1593;SDS011;790;47.000;16.084;2022-11-27T12:40:20;2.47;;;1.90;;
1593;SDS011;790;47.000;16.084;2022-11-27T12:43:03;2.43;;;1.60;;
1593;SDS011;790;47.000;16.084;2022-11-27T12:45:41;4.10;;;2.17;;
1593;SDS011;790;47.000;16.084;2022-11-27T12:48:13;3.20;;;1.70;;
1593;SDS011;790;47.000;16.084;2022-11-27T12:50:44;5.30;;;1.83;;
1593;SDS011;790;47.000;16.084;2022-11-27T12:53:17;2.17;;;1.70;;
1593;SDS011;790;47.000;16.084;2022-11-27T12:55:55;4.57;;;1.80;;
1593;SDS011;790;47.000;16.084;2022-11-27T12:58:30;2.77;;;1.70;;
1593;SDS011;790;47.000;16.084;2022-11-27T13:01:03;2.03;;;1.60;;
1593;SDS011;790;47.000;16.084;2022-11-27T13:03:34;1.97;;;1.70;;
1593;SDS011;790;47.000;16.084;2022-11-27T13:06:08;4.77;;;1.57;;
1593;SDS011;790;47.000;16.084;2022-11-27T13:08:41;6.90;;;2.63;;
1593;SDS011;790;47.000;16.084;2022-11-27T13:11:12;5.13;;;2.20;;
1593;SDS011;790;47.000;16.084;2022-11-27T13:13:43;3.50;;;1.80;;
1593;SDS011;790;47.000;16.084;2022-11-27T13:16:18;2.57;;;1.77;;
1593;SDS011;790;47.000;16.084;2022-11-27T13:18:49;3.83;;;2.03;;
1593;SDS011;790;47.000;16.084;2022-11-27T13:21:21;2.73;;;1.80;;
1593;SDS011;790;47.000;16.084;2022-11-27T13:23:51;3.33;;;1.97;;
1593;SDS011;790;47.000;16.084;2022-11-27T13:26:20;3.37;;;1.97;;
1593;SDS011;790;47.000;16.084;2022-11-27T13:28:50;4.17;;;2.60;;
1593;SDS011;790;47.000;16.084;2022-11-27T13:31:23;2.07;;;1.73;;
1593;SDS011;790;47.000;16.084;2022-11-27T13:33:56;3.33;;;1.80;;
1593;SDS011;790;47.000;16.084;2022-11-27T13:36:25;3.20;;;2.00;;
1593;SDS011;790;47.000;16.084;2022-11-27T13:38:56;2.70;;;1.90;;
1593;SDS011;790;47.000;16.084;2022-11-27T13:41:29;2.23;;;2.03;;
1593;SDS011;790;47.000;16.084;2022-11-27T13:43:58;7.03;;;5.30;;
1593;SDS011;790;47.000;16.084;2022-11-27T13:46:27;6.80;;;3.43;;
1593;SDS011;790;47.000;16.084;2022-11-27T13:48:58;4.77;;;3.90;;
1593;SDS011;790;47.000;16.084;2022-11-27T13:51:30;4.93;;;3.47;;
1593;SDS011;790;47.000;16.084;2022-11-27T13:54:05;3.33;;;3.03;;
1593;SDS011;790;47.000;16.084;2022-11-27T13:56:36;2.80;;;2.23;;
1593;SDS011;790;47.000;16.084;2022-11-27T13:59:14;4.23;;;3.63;;
1593;SDS011;790;47.000;16.084;2022-11-27T14:01:56;4.33;;;3.60;;
1593;SDS011;790;47.000;16.084;2022-11-27T14:04:24;9.30;;;3.13;;
1593;SDS011;790;47.000;16.084;2022-11-27T14:06:54;3.83;;;2.40;;
1593;SDS011;790;47.000;16.084;2022-11-27T14:09:34;3.50;;;1.87;;
1593;SDS011;790;47.000;16.084;2022-11-27T14:12:13;4.67;;;2.10;;
1593;SDS011;790;47.000;16.084;2022-11-27T14:14:42;3.97;;;2.00;;
1593;SDS011;790;47.000;16.084;2022-11-27T14:17:22;5.80;;;5.20;;
1593;SDS011;790;47.000;16.084;2022-11-27T14:19:59;3.93;;;3.20;;
1593;SDS011;790;47.000;16.084;2022-11-27T14:22:31;6.70;;;3.27;;
1593;SDS011;790;47.000;16.084;2022-11-27T14:25:01;2.93;;;2.50;;
1593;SDS011;790;47.000;16.084;2022-11-27T14:27:32;4.07;;;3.40;;
1593;SDS011;790;47.000;16.084;2022-11-27T14:30:10;3.37;;;2.07;;
1593;SDS011;790;47.000;16.084;2022-11-27T14:32:49;2.93;;;1.97;;
1593;SDS011;790;47.000;16.084;2022-11-27T14:35:19;3.63;;;2.17;;
1593;SDS011;790;47.000;16.084;2022-11-27T14:37:47;3.23;;;2.00;;
1593;SDS011;790;47.000;16.084;2022-11-27T14:40:17;1.90;;;1.80;;
1593;SDS011;790;47.000;16.084;2022-11-27T14:42:47;3.83;;;3.50;;
1593;SDS011;790;47.000;16.084;2022-11-27T14:45:14;3.17;;;2.30;;
1593;SDS011;790;47.000;16.084;2022-11-27T14:47:45;4.80;;;2.40;;
1593;SDS011;790;47.000;16.084;2022-11-27T14:50:16;3.00;;;2.57;;
1593;SDS011;790;47.000;16.084;2022-11-27T14:52:46;3.60;;;2.60;;
1593;SDS011;790;47.000;16.084;2022-11-27T14:55:17;2.00;;;1.90;;
1593;SDS011;790;47.000;16.084;2022-11-27T14:57:45;2.37;;;1.83;;
1593;SDS011;790;47.000;16.084;2022-11-27T15:00:15;3.67;;;2.03;;
1593;SDS011;790;47.000;16.084;2022-11-27T15:02:44;2.67;;;1.97;;
1593;SDS011;790;47.000;16.084;2022-11-27T15:05:18;2.00;;;1.90;;
1593;SDS011;790;47.000;16.084;2022-11-27T15:07:48;3.40;;;1.67;;
1593;SDS011;790;47.000;16.084;2022-11-27T15:13:02;4.50;;;1.93;;
1593;SDS011;790;47.000;16.084;2022-11-27T15:15:32;3.40;;;1.80;;
1593;SDS011;790;47.000;16.084;2022-11-27T15:18:05;3.03;;;2.20;;
1593;SDS011;790;47.000;16.084;2022-11-27T15:20:36;3.83;;;2.90;;
1593;SDS011;790;47.000;16.084;2022-11-27T15:23:11;7.67;;;3.47;;
1593;SDS011;790;47.000;16.084;2022-11-27T15:25:43;9.90;;;6.43;;
1593;SDS011;790;47.000;16.084;2022-11-27T15:28:28;5.87;;;4.73;;
1593;SDS011;790;47.000;16.084;2022-11-27T15:30:59;2.90;;;2.60;;
1593;SDS011;790;47.000;16.084;2022-11-27T15:33:27;3.10;;;2.33;;
1593;SDS011;790;47.000;16.084;2022-11-27T15:38:41;3.03;;;2.00;;
1593;SDS011;790;47.000;16.084;2022-11-27T15:41:19;2.13;;;2.00;;
1593;SDS011;790;47.000;16.084;2022-11-27T15:43:49;2.10;;;1.90;;
1593;SDS011;790;47.000;16.084;2022-11-27T15:46:18;9.03;;;5.67;;
1593;SDS011;790;47.000;16.084;2022-11-27T15:48:49;3.00;;;2.23;;
1593;SDS011;790;47.000;16.084;2022-11-27T15:51:17;2.40;;;2.20;;
1593;SDS011;790;47.000;16.084;2022-11-27T15:53:44;2.70;;;2.23;;